Terminal Aerodrome Forecast
Issued by NWS Charleston, SC

Home | Current Version | Previous Version | Text Only | Print | Product List | Glossary On
Versions: 1 2 3 4 5 6 7 8 9 10 11 12 13 14 15 16 17 18 19 20 21
000
FTUS42 KCHS 021137
TAFCHS
TAF
KCHS 021137Z 0212/0312 25009KT P6SM BKN200
     FM021700 23015G20KT P6SM VCTS SCT040CB BKN150
      TEMPO 0221/0301 3SM TSRA BKN040CB
     FM030100 23009KT P6SM FEW040 BKN150=

USA.gov is the U.S. government's official web portal to all federal, state and local government web resources and services.